Es ist keine erhöhte Aufmerksamkeit aufgrund des Wetters notwendig.   -   Es gibt keine Warnungen.

Nearby METAR Reports

 

ENZV - Stavanger
aktuell: 17/11/2018 02:50
teilweise bewölkt
teilweise bewölkt
 Wind von SSO
Wind: SSO 7 km/h
Temperatur: 4°C
Wind Chill: 2°C
Taupunkt: 3°C
Luftfeuchte: 93%
Luftdruck: 1037 hPa
Clouds: teilweise bewölkt
Visibility: 10 km
2018/11/17 01:50 ENZV 170150Z 15004KT 9999 SCT013 04/03 Q1037
ENBR - Bergen
aktuell: 17/11/2018 02:50
geschlossene Wolkendecke
geschlossene Wolkendecke
 Wind von SSO
Wind: SSO 15 km/h
Temperatur: 9°C
Wind Chill: 7°C
Taupunkt: 6°C
Luftfeuchte: 82%
Luftdruck: 1036 hPa
Clouds: geschlossene Wolkendecke
Visibility: 10 km
2018/11/17 01:50 ENBR 170150Z 16008KT 9999 SCT010 BKN018 OVC023 09/06 Q1036 RMK WIND 1200FT 16011KT
 
ENHD - Haugesund
aktuell: 17/11/2018 02:50
Mist, clear
Mist, clear
 Wind von SSO
Wind: SSO 11 km/h
Temperatur: 5°C
Wind Chill: 2°C
Taupunkt: 4°C
Luftfeuchte: 93%
Luftdruck: 1037 hPa
Zusammenfassung: Mist
Clouds: klar
Visibility: 2 km
2018/11/17 01:50 ENHD 170150Z AUTO 15006KT 2400 BR NCD 05/04 Q1037
ENCN - Kristiansand
aktuell: 17/11/2018 02:50
geschlossene Wolkendecke
geschlossene Wolkendecke
 Wind von ONO
Wind: ONO 9 km/h
Temperatur: 6°C
Wind Chill: 4°C
Taupunkt: 6°C
Luftfeuchte: 100%
Luftdruck: 1038 hPa
Clouds: geschlossene Wolkendecke
Visibility: 10 km
2018/11/17 01:50 ENCN 170150Z AUTO 06005KT 9999 OVC020/// 06/06 Q1038
 
ENBO - Bodø
aktuell: 17/11/2018 02:50
Light rain, showers, mostly cloudy
Light rain, showers, mostly cloudy
 Wind von WSW
Wind: WSW 50 km/h
Temperatur: 7°C
Wind Chill: 2°C
Taupunkt: 7°C
Luftfeuchte: 100%
Luftdruck: 1028 hPa
Zusammenfassung: Light rain, showers
Clouds: stark bewölkt
Visibility: 8 km
2018/11/17 01:50 ENBO 170150Z 24027KT 8000 -SHRA FEW007 SCT010 BKN018 07/07 Q1028
ENKR - Kirkenes
aktuell: 17/11/2018 02:50
Few clouds
Few clouds
 Wind von SW
Wind: SW 15 km/h
Temperatur: 3°C
Wind Chill: -1°C
Taupunkt: 1°C
Luftfeuchte: 87%
Luftdruck: 1008 hPa
Clouds: Few clouds
Visibility: 10 km
2018/11/17 01:50 ENKR 170150Z AUTO 23008KT 9999 FEW086/// 03/01 Q1008 RMK WIND 731FT 24014KT
 
ENVA - Trondheim
aktuell: 17/11/2018 02:50
stark bewölkt
stark bewölkt
 Wind von O
Wind: O 6 km/h
Temperatur: 7°C
Taupunkt: 6°C
Luftfeuchte: 93%
Luftdruck: 1036 hPa
Clouds: stark bewölkt
Visibility: 10 km
2018/11/17 01:50 ENVA 170150Z 09003KT 9999 BKN018 07/06 Q1036 RMK WIND 670FT 26006KT
ENGM - Oslo
aktuell: 17/11/2018 02:50
geschlossene Wolkendecke
geschlossene Wolkendecke
 Wind von varies
Wind: varies 4 km/h
Temperatur: 5°C
Taupunkt: 2°C
Luftfeuchte: 81%
Luftdruck: 1038 hPa
Clouds: geschlossene Wolkendecke
Visibility: 10 km
2018/11/17 01:50 ENGM 170150Z VRB02KT 9999 OVC010 05/02 Q1038